Time;durP1;ratioP1;P1;durP2;ratioP2;P2;SDS_P1;SDS_P2;PMS_P1;PMS_P2;Temp;Humidity;BMP_temperature;BMP_pressure;BME280_temperature;BME280_humidity;BME280_pressure;Samples;Min_cycle;Max_cycle;Signal;HPM_P1;HPM_P2
2024/01/05 00:00:15;;;;;;;4.77;3.13;;;21.70;81.40;;;;;;5010342;28;20458;-62
2024/01/05 00:02:42;;;;;;;3.63;2.73;;;21.70;81.30;;;;;;5008041;28;20751;-61
2024/01/05 00:05:11;;;;;;;10.33;3.47;;;21.70;81.10;;;;;;5009832;28;20465;-61
2024/01/05 00:07:39;;;;;;;3.27;2.67;;;21.60;80.90;;;;;;5015469;28;20710;-61
2024/01/05 00:10:07;;;;;;;4.93;3.13;;;21.60;80.90;;;;;;5017521;28;20462;-61
2024/01/05 00:12:34;;;;;;;3.43;2.37;;;21.60;80.90;;;;;;5015332;28;20463;-60
2024/01/05 00:15:00;;;;;;;4.93;2.90;;;21.60;80.90;;;;;;5012483;28;20461;-61
2024/01/05 00:17:27;;;;;;;4.47;2.70;;;21.60;81.00;;;;;;5008279;28;20481;-61
2024/01/05 00:19:54;;;;;;;4.63;3.23;;;21.60;80.90;;;;;;5006797;28;20462;-59
2024/01/05 00:22:28;;;;;;;5.83;3.63;;;21.60;80.90;;;;;;5011927;28;20476;-58
2024/01/05 00:24:55;;;;;;;3.83;2.87;;;21.50;80.70;;;;;;5008400;28;20461;-58
2024/01/05 00:27:22;;;;;;;4.63;3.03;;;21.50;80.70;;;;;;5015306;28;20470;-61
2024/01/05 00:29:48;;;;;;;5.63;3.20;;;21.50;80.70;;;;;;5013941;28;20929;-59
2024/01/05 00:32:16;;;;;;;2.83;2.53;;;21.50;80.70;;;;;;5010483;28;20461;-59
2024/01/05 00:34:43;;;;;;;4.13;3.00;;;21.40;80.60;;;;;;5013664;28;20465;-61
2024/01/05 00:37:10;;;;;;;3.50;2.67;;;21.50;80.80;;;;;;5008907;28;20461;-61
2024/01/05 00:39:41;;;;;;;4.30;2.60;;;21.40;80.70;;;;;;5009203;28;20458;-61
2024/01/05 00:42:10;;;;;;;2.80;2.30;;;21.40;80.70;;;;;;5015391;28;20484;-59
2024/01/05 00:44:39;;;;;;;4.90;3.60;;;21.40;80.70;;;;;;5011923;28;20733;-61
2024/01/05 00:47:12;;;;;;;3.00;2.50;;;21.40;80.70;;;;;;5011474;28;20697;-60
2024/01/05 00:49:41;;;;;;;3.90;3.23;;;21.40;80.60;;;;;;5006550;28;20473;-61
2024/01/05 00:52:08;;;;;;;5.07;2.80;;;21.40;80.60;;;;;;5010351;28;21330;-61
2024/01/05 00:54:34;;;;;;;4.07;3.10;;;21.40;80.60;;;;;;5013431;28;20454;-61
2024/01/05 00:57:03;;;;;;;3.40;2.60;;;21.40;80.60;;;;;;5014138;28;20458;-61
2024/01/05 00:59:32;;;;;;;6.00;2.77;;;21.30;80.60;;;;;;5008346;28;20460;-61
2024/01/05 01:01:59;;;;;;;3.27;2.27;;;21.30;80.70;;;;;;5010523;28;20486;-61
2024/01/05 01:04:27;;;;;;;3.67;2.37;;;21.30;80.70;;;;;;5014369;28;20461;-61
2024/01/05 01:06:53;;;;;;;3.53;2.47;;;21.30;80.80;;;;;;5017708;28;20450;-61
2024/01/05 01:09:20;;;;;;;3.80;2.37;;;21.30;80.70;;;;;;5018610;28;20784;-60
2024/01/05 01:11:53;;;;;;;5.25;2.47;;;21.30;80.70;;;;;;5010918;28;20462;-60
2024/01/05 01:14:23;;;;;;;2.83;1.90;;;21.30;81.40;;;;;;5015009;28;20205;-59
2024/01/05 01:16:49;;;;;;;3.17;2.33;;;21.30;80.70;;;;;;5016905;28;20462;-60
2024/01/05 01:19:16;;;;;;;5.20;2.83;;;21.30;80.70;;;;;;5012909;28;20727;-60
2024/01/05 01:21:43;;;;;;;2.63;2.42;;;21.20;80.60;;;;;;5012796;28;20705;-59
2024/01/05 01:24:09;;;;;;;6.27;2.67;;;21.20;80.70;;;;;;5017469;28;20210;-61
2024/01/05 01:26:39;;;;;;;3.20;2.67;;;21.20;80.80;;;;;;5013166;28;20460;-61
2024/01/05 01:29:07;;;;;;;2.60;1.95;;;21.20;80.80;;;;;;5017289;28;20462;-61
2024/01/05 01:31:35;;;;;;;2.45;2.25;;;21.20;80.70;;;;;;5018100;28;20199;-60
2024/01/05 01:34:05;;;;;;;3.47;2.30;;;21.20;80.70;;;;;;5015832;28;21050;-61
2024/01/05 01:36:31;;;;;;;4.37;3.00;;;21.20;80.70;;;;;;5017768;28;20746;-59
2024/01/05 01:39:04;;;;;;;2.90;1.88;;;21.10;80.60;;;;;;5013832;28;20461;-60
2024/01/05 01:41:31;;;;;;;3.47;1.90;;;21.10;80.60;;;;;;5010183;28;20219;-57
2024/01/05 01:44:00;;;;;;;2.25;1.95;;;21.10;80.60;;;;;;5017431;28;20203;-61
2024/01/05 01:46:28;;;;;;;3.20;2.43;;;21.10;80.70;;;;;;5016139;28;20207;-61
2024/01/05 01:48:59;;;;;;;3.60;2.60;;;21.10;80.80;;;;;;5016716;28;20467;-58
2024/01/05 01:51:28;;;;;;;6.93;3.15;;;21.10;80.70;;;;;;5016101;28;20458;-61
2024/01/05 01:53:56;;;;;;;3.70;2.10;;;21.10;80.80;;;;;;5015945;28;20328;-61
2024/01/05 01:56:25;;;;;;;3.10;2.33;;;21.10;80.90;;;;;;5015032;28;20466;-59
2024/01/05 01:58:52;;;;;;;3.17;1.75;;;21.10;80.80;;;;;;5016110;28;20465;-61
2024/01/05 02:01:19;;;;;;;4.93;2.37;;;21.00;80.70;;;;;;5013444;28;20197;-61
2024/01/05 02:03:46;;;;;;;2.40;2.13;;;21.00;80.60;;;;;;5018025;28;20488;-59
2024/01/05 02:06:17;;;;;;;3.33;2.33;;;21.00;80.60;;;;;;5011986;28;20455;-60
2024/01/05 02:08:46;;;;;;;3.85;3.15;;;21.00;80.70;;;;;;5014532;28;20465;-61
2024/01/05 02:11:17;;;;;;;4.03;2.80;;;21.00;80.70;;;;;;5012909;28;20226;-60
2024/01/05 02:13:48;;;;;;;2.58;2.22;;;21.00;80.90;;;;;;5018226;28;20197;-61
2024/01/05 02:16:16;;;;;;;2.60;2.40;;;21.00;80.70;;;;;;5011998;28;20204;-60
2024/01/05 02:18:50;;;;;;;2.03;1.77;;;21.00;80.90;;;;;;5015330;28;20469;-61
2024/01/05 02:21:24;;;;;;;3.00;2.43;;;21.00;80.80;;;;;;5014099;28;20472;-58
2024/01/05 02:23:52;;;;;;;3.10;2.30;;;21.00;80.90;;;;;;5013794;28;20516;-60
2024/01/05 02:26:20;;;;;;;3.70;2.05;;;20.90;80.70;;;;;;5015987;28;20475;-60
2024/01/05 02:28:47;;;;;;;3.03;1.85;;;20.90;80.70;;;;;;5015580;28;20203;-60
2024/01/05 02:31:13;;;;;;;2.90;2.10;;;20.90;80.70;;;;;;5014019;28;20212;-60
2024/01/05 02:33:40;;;;;;;4.00;2.15;;;20.90;80.70;;;;;;5008792;28;20461;-61
2024/01/05 02:36:07;;;;;;;3.97;2.03;;;20.90;80.60;;;;;;5014228;28;20670;-61
2024/01/05 02:38:36;;;;;;;3.33;2.78;;;20.90;80.90;;;;;;5013109;28;20314;-59
2024/01/05 02:41:07;;;;;;;2.78;2.05;;;20.90;80.80;;;;;;5018127;28;20548;-59
2024/01/05 02:43:35;;;;;;;2.60;1.80;;;20.90;80.90;;;;;;5014909;28;20216;-60
2024/01/05 02:46:04;;;;;;;2.67;1.85;;;20.90;81.00;;;;;;5011976;28;20207;-60
2024/01/05 02:48:34;;;;;;;3.90;2.20;;;20.90;80.90;;;;;;5015587;28;20210;-60
2024/01/05 02:51:00;;;;;;;2.72;2.10;;;20.90;80.70;;;;;;5016111;28;20199;-60
2024/01/05 02:53:27;;;;;;;2.25;1.92;;;20.90;80.90;;;;;;5018334;28;20207;-59
2024/01/05 02:55:55;;;;;;;3.45;1.92;;;20.90;80.90;;;;;;5015588;28;22822;-60
2024/01/05 02:58:26;;;;;;;2.72;2.47;;;20.90;80.70;;;;;;5014075;28;20663;-61
2024/01/05 03:00:54;;;;;;;2.17;1.90;;;20.80;80.90;;;;;;5012732;28;20203;-60
2024/01/05 03:03:21;;;;;;;2.60;2.03;;;20.80;80.90;;;;;;5015315;28;20230;-60
2024/01/05 03:05:47;;;;;;;3.30;2.38;;;20.80;80.90;;;;;;5014641;28;20194;-61
2024/01/05 03:08:14;;;;;;;3.05;2.30;;;20.80;80.90;;;;;;5016863;28;20671;-59
2024/01/05 03:10:46;;;;;;;3.30;2.60;;;20.80;80.90;;;;;;5016486;28;20209;-61
2024/01/05 03:13:13;;;;;;;2.20;2.00;;;20.80;81.00;;;;;;5013272;28;20473;-58
2024/01/05 03:15:46;;;;;;;2.45;2.10;;;20.80;81.00;;;;;;5011238;28;20200;-60
2024/01/05 03:18:15;;;;;;;2.17;1.95;;;20.80;80.90;;;;;;5016035;28;20468;-61
2024/01/05 03:20:42;;;;;;;2.55;2.20;;;20.80;81.00;;;;;;5010850;28;21625;-60
2024/01/05 03:23:09;;;;;;;2.60;2.20;;;20.80;80.90;;;;;;5011521;28;20699;-60
2024/01/05 03:25:35;;;;;;;3.47;1.97;;;20.80;81.00;;;;;;5010261;28;20192;-58
2024/01/05 03:28:02;;;;;;;2.50;2.05;;;20.80;81.00;;;;;;5005547;28;20928;-59
2024/01/05 03:30:29;;;;;;;2.72;1.90;;;20.70;80.90;;;;;;4998541;28;20810;-59
2024/01/05 03:32:57;;;;;;;4.57;2.33;;;20.70;81.00;;;;;;5004236;28;20249;-60
2024/01/05 03:35:31;;;;;;;2.20;1.90;;;20.70;81.00;;;;;;4998967;28;20199;-61
2024/01/05 03:37:59;;;;;;;3.03;1.77;;;20.70;80.90;;;;;;5010893;28;20187;-59
2024/01/05 03:40:28;;;;;;;3.00;2.22;;;20.70;80.90;;;;;;5003917;28;20195;-59
2024/01/05 03:42:55;;;;;;;3.90;2.33;;;20.70;80.90;;;;;;5007398;28;20371;-61
2024/01/05 03:45:23;;;;;;;2.67;1.87;;;20.70;81.00;;;;;;5008943;28;20206;-59
2024/01/05 03:47:51;;;;;;;2.17;1.60;;;20.70;80.80;;;;;;5015765;28;20465;-57
2024/01/05 03:50:20;;;;;;;1.80;1.65;;;20.70;81.00;;;;;;5017419;28;20547;-61
2024/01/05 03:52:49;;;;;;;4.60;2.72;;;20.70;81.00;;;;;;5015727;28;20646;-60
2024/01/05 03:55:18;;;;;;;3.83;2.47;;;20.60;80.90;;;;;;5008924;28;20211;-58
2024/01/05 03:57:45;;;;;;;2.70;2.05;;;20.70;81.20;;;;;;5015692;28;20196;-59
2024/01/05 04:00:16;;;;;;;2.33;1.98;;;20.70;81.10;;;;;;5011776;28;20198;-60
2024/01/05 04:02:42;;;;;;;3.80;2.10;;;20.70;81.20;;;;;;5014534;28;20218;-58
2024/01/05 04:05:15;;;;;;;2.28;1.80;;;20.60;80.90;;;;;;5015725;28;20668;-60
2024/01/05 04:07:52;;;;;;;3.83;2.40;;;20.60;81.90;;;;;;5012990;28;20704;-58
2024/01/05 04:10:19;;;;;;;2.27;1.50;;;20.60;81.00;;;;;;5013002;28;20924;-61
2024/01/05 04:12:48;;;;;;;2.85;1.75;;;20.60;80.90;;;;;;5014871;28;21227;-58
2024/01/05 04:15:15;;;;;;;1.98;1.58;;;20.60;80.80;;;;;;5013742;28;20203;-60
2024/01/05 04:17:46;;;;;;;1.67;1.57;;;20.60;81.00;;;;;;5013572;28;20286;-61
2024/01/05 04:20:14;;;;;;;2.42;1.50;;;20.60;80.90;;;;;;5013391;28;20511;-61
2024/01/05 04:22:40;;;;;;;2.67;2.10;;;20.60;81.10;;;;;;5011352;28;20605;-57
2024/01/05 04:25:12;;;;;;;2.88;1.75;;;20.60;81.00;;;;;;5009572;28;20465;-58
2024/01/05 04:27:39;;;;;;;2.38;1.73;;;20.60;80.90;;;;;;5013866;28;20735;-57
2024/01/05 04:30:07;;;;;;;2.20;1.83;;;20.60;81.80;;;;;;5014020;28;20200;-60
2024/01/05 04:32:35;;;;;;;5.80;2.30;;;20.60;80.90;;;;;;5013854;28;20468;-60
2024/01/05 04:35:03;;;;;;;2.53;1.92;;;20.60;80.80;;;;;;5012313;28;21058;-60
2024/01/05 04:37:32;;;;;;;2.00;1.52;;;20.60;81.00;;;;;;5016754;28;20727;-60
2024/01/05 04:40:00;;;;;;;3.20;1.90;;;20.60;81.20;;;;;;5012673;28;20287;-59
2024/01/05 04:42:29;;;;;;;1.90;1.55;;;20.60;81.10;;;;;;5015505;28;20206;-60
2024/01/05 04:44:56;;;;;;;3.35;2.00;;;20.60;81.20;;;;;;5006630;28;20524;-60
2024/01/05 04:47:23;;;;;;;2.60;1.70;;;20.60;80.90;;;;;;5014441;28;20207;-60
2024/01/05 04:49:49;;;;;;;2.47;2.28;;;20.60;81.00;;;;;;5013789;28;20192;-59
2024/01/05 04:52:19;;;;;;;2.20;1.95;;;20.60;81.20;;;;;;5016411;28;20199;-60
2024/01/05 04:54:46;;;;;;;2.20;1.85;;;20.60;81.10;;;;;;5012199;28;20286;-60
2024/01/05 04:57:13;;;;;;;2.75;2.50;;;20.60;80.90;;;;;;5012123;28;20210;-60
2024/01/05 04:59:46;;;;;;;3.13;1.85;;;20.60;81.00;;;;;;5012654;28;20195;-59
2024/01/05 05:02:15;;;;;;;2.88;2.10;;;20.60;81.00;;;;;;5007724;28;20192;-60
2024/01/05 05:04:42;;;;;;;2.40;1.52;;;20.60;81.10;;;;;;5014669;28;20266;-61
2024/01/05 05:07:08;;;;;;;2.07;1.40;;;20.50;81.20;;;;;;5011161;28;20361;-61
2024/01/05 05:09:37;;;;;;;2.42;1.70;;;20.50;81.80;;;;;;4997881;28;22010;-61
2024/01/05 05:12:04;;;;;;;2.13;1.75;;;20.50;80.90;;;;;;5015874;28;20615;-58
2024/01/05 05:14:31;;;;;;;2.00;1.60;;;20.50;80.90;;;;;;5010820;28;20202;-61
2024/01/05 05:17:03;;;;;;;2.15;1.80;;;20.50;80.90;;;;;;5014099;28;20204;-60
2024/01/05 05:19:31;;;;;;;1.80;1.27;;;20.50;81.00;;;;;;5011866;28;20264;-59
2024/01/05 05:21:58;;;;;;;2.92;2.08;;;20.50;80.90;;;;;;5011162;28;20203;-58
2024/01/05 05:24:24;;;;;;;2.00;1.50;;;20.50;80.90;;;;;;5008095;28;20570;-60
2024/01/05 05:26:51;;;;;;;2.80;1.70;;;20.50;81.20;;;;;;5009788;28;21419;-60
2024/01/05 05:29:20;;;;;;;2.97;2.05;;;20.40;80.90;;;;;;5012064;28;20200;-58
2024/01/05 05:31:49;;;;;;;2.33;1.52;;;20.50;81.00;;;;;;5011624;28;20773;-60
2024/01/05 05:34:18;;;;;;;2.28;1.95;;;20.50;81.10;;;;;;5013345;28;20195;-59
2024/01/05 05:36:47;;;;;;;3.05;2.17;;;20.50;81.00;;;;;;5008406;28;20202;-60
2024/01/05 05:39:13;;;;;;;2.42;1.95;;;20.50;81.10;;;;;;5008677;28;20183;-60
2024/01/05 05:41:40;;;;;;;2.28;1.60;;;20.50;81.10;;;;;;5013643;28;20199;-61
2024/01/05 05:44:08;;;;;;;2.15;1.60;;;20.50;81.00;;;;;;5011643;28;20536;-61
2024/01/05 05:46:42;;;;;;;2.92;1.70;;;20.50;81.00;;;;;;5013150;28;20207;-60
2024/01/05 05:49:11;;;;;;;2.83;1.58;;;20.50;81.10;;;;;;5013831;28;20197;-58
2024/01/05 05:51:39;;;;;;;2.25;1.70;;;20.50;81.10;;;;;;5015954;28;20200;-59
2024/01/05 05:54:07;;;;;;;3.10;2.00;;;20.40;80.90;;;;;;5015873;28;20646;-60
2024/01/05 05:56:34;;;;;;;3.35;1.80;;;20.50;81.20;;;;;;5016333;28;20458;-60
2024/01/05 05:59:03;;;;;;;4.30;2.05;;;20.40;81.20;;;;;;5014647;28;20872;-60
2024/01/05 06:01:34;;;;;;;2.83;1.83;;;20.40;81.00;;;;;;5010102;28;20201;-61
2024/01/05 06:04:05;;;;;;;2.90;1.90;;;20.40;81.10;;;;;;5016536;28;20223;-61
2024/01/05 06:06:32;;;;;;;3.40;1.85;;;20.40;80.90;;;;;;5012044;28;20195;-59
2024/01/05 06:09:00;;;;;;;2.38;2.03;;;20.40;80.80;;;;;;5016282;28;20198;-59
2024/01/05 06:11:29;;;;;;;1.80;1.50;;;20.40;80.90;;;;;;5015535;28;20206;-61
2024/01/05 06:13:59;;;;;;;2.78;1.75;;;20.40;80.90;;;;;;5010574;28;20762;-61
2024/01/05 06:16:25;;;;;;;1.50;1.35;;;20.40;81.10;;;;;;5012494;28;20199;-61
2024/01/05 06:18:52;;;;;;;2.08;1.48;;;20.40;81.20;;;;;;5009319;28;20197;-61
2024/01/05 06:21:22;;;;;;;2.90;1.70;;;20.40;81.10;;;;;;5008628;28;20195;-60
2024/01/05 06:23:51;;;;;;;2.10;1.63;;;20.40;81.00;;;;;;5017753;28;20226;-59
2024/01/05 06:26:19;;;;;;;2.25;1.60;;;20.40;81.00;;;;;;5011976;28;20349;-61
2024/01/05 06:28:46;;;;;;;2.63;2.08;;;20.40;81.10;;;;;;5013508;28;20200;-59
2024/01/05 06:31:12;;;;;;;2.00;1.70;;;20.40;81.20;;;;;;5014032;28;20207;-61
2024/01/05 06:33:39;;;;;;;1.58;1.30;;;20.40;81.20;;;;;;5013565;28;20196;-60
2024/01/05 06:36:09;;;;;;;2.78;1.42;;;20.40;80.90;;;;;;5016600;28;20199;-61
2024/01/05 06:38:36;;;;;;;3.08;1.73;;;20.40;80.90;;;;;;5011390;28;20202;-58
2024/01/05 06:41:03;;;;;;;1.95;1.75;;;20.40;81.20;;;;;;5016100;28;21220;-59
2024/01/05 06:43:31;;;;;;;1.35;1.25;;;20.40;81.00;;;;;;5015278;28;20214;-61
2024/01/05 06:45:58;;;;;;;3.17;2.10;;;20.40;81.00;;;;;;5012054;28;20195;-60
2024/01/05 06:48:26;;;;;;;2.25;1.50;;;20.40;81.00;;;;;;5012662;28;20199;-60
2024/01/05 06:50:53;;;;;;;1.63;1.30;;;20.40;81.00;;;;;;5013769;28;20199;-61
2024/01/05 06:53:22;;;;;;;2.25;1.77;;;20.40;80.90;;;;;;5013179;28;20204;-61
2024/01/05 06:55:49;;;;;;;2.50;1.95;;;20.40;81.00;;;;;;5013895;28;20656;-58
2024/01/05 06:58:19;;;;;;;1.88;1.65;;;20.40;81.00;;;;;;5012907;28;20208;-56
2024/01/05 07:00:47;;;;;;;2.22;1.75;;;20.30;80.90;;;;;;5016549;28;20203;-55
2024/01/05 07:03:14;;;;;;;2.08;1.65;;;20.30;81.00;;;;;;5016467;28;20198;-55
2024/01/05 07:05:41;;;;;;;2.05;1.38;;;20.30;81.00;;;;;;5010126;28;20795;-57
2024/01/05 07:08:07;;;;;;;2.50;1.60;;;20.30;81.00;;;;;;5011857;28;20567;-58
2024/01/05 07:10:35;;;;;;;1.55;1.10;;;20.30;81.00;;;;;;5011787;28;20265;-56
2024/01/05 07:13:02;;;;;;;1.95;1.30;;;20.30;81.10;;;;;;5008757;28;20199;-57
2024/01/05 07:15:29;;;;;;;1.60;1.35;;;20.30;80.90;;;;;;5013095;28;20203;-58
2024/01/05 07:17:59;;;;;;;2.50;1.23;;;20.30;81.10;;;;;;5008857;28;20689;-59
2024/01/05 07:20:27;;;;;;;1.50;1.40;;;20.30;81.00;;;;;;5006581;28;20211;-59
2024/01/05 07:22:54;;;;;;;1.70;1.42;;;20.20;80.90;;;;;;5017991;28;20478;-58
2024/01/05 07:25:21;;;;;;;1.95;1.33;;;20.20;80.80;;;;;;5010305;28;20226;-58
2024/01/05 07:27:47;;;;;;;1.75;1.45;;;20.20;80.90;;;;;;5008654;28;20199;-59
2024/01/05 07:30:17;;;;;;;2.83;1.80;;;20.20;80.80;;;;;;5015802;28;20194;-56
2024/01/05 07:32:44;;;;;;;2.30;1.70;;;20.20;81.00;;;;;;5013608;28;20199;-58
2024/01/05 07:35:13;;;;;;;1.67;1.50;;;20.20;81.00;;;;;;5008849;28;20353;-58
2024/01/05 07:37:39;;;;;;;1.83;1.63;;;20.20;81.10;;;;;;5013123;28;20773;-56
2024/01/05 07:40:07;;;;;;;1.98;1.77;;;20.30;81.50;;;;;;5018718;28;20904;-58
2024/01/05 07:42:36;;;;;;;2.30;1.67;;;20.30;81.50;;;;;;5010228;28;20226;-57
2024/01/05 07:45:07;;;;;;;1.45;1.20;;;20.30;81.20;;;;;;5015068;28;20211;-59
2024/01/05 07:47:33;;;;;;;1.50;1.20;;;20.30;81.70;;;;;;5008038;28;20620;-56
2024/01/05 07:50:00;;;;;;;1.80;1.58;;;20.30;81.80;;;;;;5012636;28;20338;-57
2024/01/05 07:52:28;;;;;;;2.20;1.40;;;20.30;81.70;;;;;;5016896;28;20187;-56
2024/01/05 07:54:55;;;;;;;1.80;1.50;;;20.40;81.80;;;;;;5024783;28;20194;-56
2024/01/05 07:57:22;;;;;;;1.60;1.40;;;20.30;81.80;;;;;;5019749;28;20234;-56
2024/01/05 07:59:48;;;;;;;1.85;1.40;;;20.40;81.70;;;;;;5012167;28;20202;-55
2024/01/05 08:02:15;;;;;;;1.50;1.23;;;20.40;81.90;;;;;;5007573;28;20555;-55
2024/01/05 08:04:42;;;;;;;2.55;1.70;;;20.40;81.90;;;;;;5011848;28;20246;-58
2024/01/05 08:07:11;;;;;;;1.60;1.50;;;20.40;82.70;;;;;;5006388;28;20652;-58
2024/01/05 08:09:42;;;;;;;1.58;1.48;;;20.40;81.80;;;;;;5011013;28;20199;-55
2024/01/05 08:12:11;;;;;;;2.35;1.40;;;20.40;81.70;;;;;;5011697;28;20199;-59
2024/01/05 08:14:38;;;;;;;2.10;1.63;;;20.40;81.80;;;;;;5010416;28;20714;-58
2024/01/05 08:17:07;;;;;;;1.75;1.20;;;20.40;82.20;;;;;;5012159;28;20250;-57
2024/01/05 08:19:33;;;;;;;1.83;1.50;;;20.40;82.00;;;;;;5008489;28;20191;-54
2024/01/05 08:22:00;;;;;;;2.13;2.00;;;20.40;81.80;;;;;;5009306;28;20206;-57
2024/01/05 08:24:27;;;;;;;1.92;1.13;;;20.40;82.10;;;;;;5009658;28;20211;-60
2024/01/05 08:26:55;;;;;;;1.83;1.13;;;20.50;81.90;;;;;;5012007;28;20199;-56
2024/01/05 08:29:22;;;;;;;1.98;1.52;;;20.50;82.10;;;;;;5009850;28;20206;-66
2024/01/05 08:31:49;;;;;;;4.55;1.73;;;20.50;82.60;;;;;;5013669;28;20277;-63
2024/01/05 08:34:22;;;;;;;2.05;1.60;;;20.50;83.00;;;;;;5011871;28;20203;-66
2024/01/05 08:36:54;;;;;;;2.53;1.23;;;20.60;83.20;;;;;;5013030;28;20199;-69
2024/01/05 08:39:27;;;;;;;5.05;1.60;;;20.60;82.00;;;;;;5002536;28;20641;-67
2024/01/05 08:42:11;;;;;;;3.92;1.77;;;20.50;78.10;;;;;;5002924;28;20192;-66
2024/01/05 08:44:40;;;;;;;4.63;1.55;;;20.30;73.40;;;;;;5011299;28;20218;-62
2024/01/05 08:47:18;;;;;;;4.40;1.55;;;20.10;70.80;;;;;;5012982;28;20595;-65
2024/01/05 08:52:43;;;;;;;3.47;1.92;;;20.00;70.80;;;;;;5008392;28;20223;-64
2024/01/05 08:55:17;;;;;;;2.00;1.20;;;19.90;67.70;;;;;;5013801;28;20211;-63
2024/01/05 08:58:10;;;;;;;3.25;1.80;;;19.80;68.60;;;;;;5008771;28;20229;-67
2024/01/05 09:00:40;;;;;;;2.50;1.00;;;19.80;69.60;;;;;;5003888;28;20206;-65
2024/01/05 09:03:06;;;;;;;8.10;1.73;;;19.70;68.10;;;;;;5003904;28;20257;-65
2024/01/05 09:05:42;;;;;;;3.00;1.33;;;19.80;68.70;;;;;;5005723;28;20218;-66
2024/01/05 09:08:20;;;;;;;6.10;1.58;;;19.80;70.10;;;;;;5007660;28;20198;-65
2024/01/05 09:10:50;;;;;;;6.35;1.70;;;19.90;71.00;;;;;;4999281;28;20231;-60
2024/01/05 09:16:36;;;;;;;2.78;1.80;;;20.00;72.00;;;;;;5002041;28;20564;-62
2024/01/05 09:19:11;;;;;;;8.52;2.60;;;20.10;72.80;;;;;;5008542;28;20328;-61
2024/01/05 09:21:45;;;;;;;4.35;1.48;;;20.10;73.20;;;;;;5009012;28;20206;-62
2024/01/05 09:24:15;;;;;;;2.95;1.25;;;20.10;73.70;;;;;;5007411;28;20259;-65
2024/01/05 09:26:49;;;;;;;1.90;1.20;;;20.20;74.10;;;;;;5011650;28;20215;-65
2024/01/05 09:29:26;;;;;;;2.97;1.30;;;20.20;74.50;;;;;;5004623;28;20203;-63
2024/01/05 09:34:44;;;;;;;3.92;1.30;;;20.30;75.50;;;;;;5005897;28;20929;-64
2024/01/05 09:37:14;;;;;;;3.10;1.30;;;20.40;75.90;;;;;;4996474;28;20204;-62
2024/01/05 09:39:58;;;;;;;2.92;2.08;;;20.40;76.20;;;;;;5005674;28;20192;-62
2024/01/05 09:42:31;;;;;;;2.47;1.10;;;20.40;76.30;;;;;;5004349;28;20400;-63
2024/01/05 09:45:15;;;;;;;2.30;1.30;;;20.40;76.30;;;;;;5000460;28;20215;-62
2024/01/05 09:48:02;;;;;;;1.48;1.00;;;20.40;76.40;;;;;;5002464;28;20191;-62
2024/01/05 09:50:42;;;;;;;5.95;1.95;;;20.40;76.60;;;;;;5000158;28;20195;-61
2024/01/05 09:53:12;;;;;;;3.50;1.00;;;20.40;76.50;;;;;;4996330;28;20289;-62
2024/01/05 09:55:46;;;;;;;2.65;1.25;;;20.40;76.60;;;;;;4997590;28;20195;-61
2024/01/05 10:01:38;;;;;;;2.70;1.30;;;20.50;76.90;;;;;;4998184;28;20667;-62
2024/01/05 10:04:11;;;;;;;2.50;1.17;;;20.50;76.20;;;;;;5005644;28;20195;-62
2024/01/05 10:06:48;;;;;;;3.33;1.70;;;20.50;76.90;;;;;;5003829;28;20330;-61
2024/01/05 10:09:18;;;;;;;1.90;1.30;;;20.50;76.90;;;;;;5005917;28;20596;-62
2024/01/05 10:11:46;;;;;;;1.55;1.25;;;20.50;76.90;;;;;;5000241;28;20431;-61
2024/01/05 10:14:20;;;;;;;2.15;1.05;;;20.50;76.90;;;;;;5002499;28;20200;-62
2024/01/05 10:16:56;;;;;;;1.88;1.23;;;20.50;76.90;;;;;;5002820;28;20207;-61
2024/01/05 10:19:32;;;;;;;3.45;1.17;;;20.60;77.00;;;;;;5002012;28;20586;-62
2024/01/05 10:22:09;;;;;;;1.67;1.00;;;20.50;77.00;;;;;;4999715;28;20213;-63
2024/01/05 10:24:36;;;;;;;1.75;1.00;;;20.50;77.10;;;;;;4994810;28;20289;-66
2024/01/05 10:27:10;;;;;;;1.73;1.15;;;20.50;77.20;;;;;;4998636;28;20211;-67
2024/01/05 10:29:42;;;;;;;2.00;1.17;;;20.60;77.50;;;;;;5003999;28;20285;-66
2024/01/05 10:32:25;;;;;;;1.60;1.13;;;20.60;77.70;;;;;;5005741;28;20207;-66
2024/01/05 10:35:24;;;;;;;1.42;1.00;;;20.60;77.80;;;;;;5000109;28;20211;-66
2024/01/05 10:38:06;;;;;;;1.40;1.08;;;20.60;77.90;;;;;;5010913;28;20203;-65
2024/01/05 10:40:34;;;;;;;1.85;1.17;;;20.70;78.10;;;;;;5002388;28;20867;-66
2024/01/05 10:43:18;;;;;;;3.17;1.30;;;20.70;78.10;;;;;;4992280;28;20246;-67
2024/01/05 10:45:56;;;;;;;1.40;1.00;;;20.60;78.00;;;;;;5001385;28;21158;-67
2024/01/05 10:48:42;;;;;;;2.00;1.20;;;20.60;78.10;;;;;;5004005;28;20200;-64
2024/01/05 10:51:25;;;;;;;;;;;;;;;;;;;;;
2024/01/05 10:54:12;;;;;;;1.83;1.00;;;20.60;78.20;;;;;;5002813;28;20203;-64
2024/01/05 10:56:59;;;;;;;1.30;1.10;;;20.60;78.40;;;;;;5002349;28;20469;-63
2024/01/05 10:59:38;;;;;;;;;;;;;;;;;;;;;
2024/01/05 11:02:19;;;;;;;3.47;1.10;;;20.60;78.40;;;;;;5005259;28;20461;-63
2024/01/05 11:05:13;;;;;;;1.57;1.20;;;20.60;78.40;;;;;;5000750;28;20981;-64
2024/01/05 11:07:42;;;;;;;2.08;1.25;;;20.60;78.40;;;;;;4996028;28;20458;-64
2024/01/05 11:10:38;;;;;;;2.97;1.40;;;20.60;78.40;;;;;;4998059;28;20324;-64
2024/01/05 11:13:22;;;;;;;1.30;0.90;;;20.60;78.50;;;;;;5004347;28;20621;-65
2024/01/05 11:16:07;;;;;;;1.90;0.98;;;20.40;78.20;;;;;;5002560;28;20206;-64
2024/01/05 11:19:12;;;;;;;1.40;1.30;;;20.60;78.50;;;;;;5006006;28;20199;-64
2024/01/05 11:22:01;;;;;;;1.25;0.98;;;20.70;78.70;;;;;;5007775;28;21836;-65
2024/01/05 11:24:37;;;;;;;1.70;1.10;;;20.60;78.50;;;;;;5004129;28;20227;-65
2024/01/05 11:27:28;;;;;;;1.30;1.05;;;20.60;78.50;;;;;;5005717;28;20199;-63
2024/01/05 11:30:10;;;;;;;1.58;1.20;;;20.60;78.70;;;;;;4999361;28;20195;-63
2024/01/05 11:32:43;;;;;;;1.60;1.10;;;20.60;78.70;;;;;;4994030;28;20200;-69
2024/01/05 11:35:47;;;;;;;2.60;0.82;;;20.60;79.00;;;;;;5002931;28;20204;-69
2024/01/05 11:38:30;;;;;;;2.78;1.20;;;20.60;79.30;;;;;;5000052;28;20667;-70
2024/01/05 11:40:57;;;;;;;1.45;0.90;;;20.60;79.10;;;;;;4990423;28;20222;-70
2024/01/05 11:43:42;;;;;;;2.22;1.20;;;20.60;79.30;;;;;;4992494;28;20295;-69
2024/01/05 11:46:22;;;;;;;1.40;1.00;;;20.60;79.50;;;;;;4994149;28;20314;-70
2024/01/05 11:49:07;;;;;;;1.50;1.00;;;20.70;79.60;;;;;;4996587;28;20204;-68
2024/01/05 11:52:05;;;;;;;;;;;;;;;;;;;;;
2024/01/05 11:54:37;;;;;;;1.60;1.33;;;20.90;80.10;;;;;;4992075;28;20464;-67
2024/01/05 11:57:17;;;;;;;1.08;0.95;;;21.00;80.50;;;;;;4993948;28;20203;-69
2024/01/05 12:00:00;;;;;;;7.83;1.00;;;20.80;80.50;;;;;;4995026;28;20198;-69
2024/01/05 12:02:35;;;;;;;2.40;0.90;;;20.70;80.50;;;;;;4983191;28;20722;-69
2024/01/05 12:05:17;;;;;;;1.52;1.00;;;20.80;80.70;;;;;;4993252;28;21745;-69
2024/01/05 12:07:46;;;;;;;1.65;0.98;;;20.90;80.60;;;;;;4998938;28;20884;-68
2024/01/05 12:10:23;;;;;;;2.00;1.17;;;21.00;80.60;;;;;;4988656;28;20721;-69
2024/01/05 12:13:07;;;;;;;;;;;;;;;;;;;;;
2024/01/05 12:15:41;;;;;;;2.53;1.23;;;21.00;80.90;;;;;;4986128;28;20996;-68
2024/01/05 12:18:25;;;;;;;1.60;1.37;;;21.00;80.90;;;;;;4997787;28;20522;-69
2024/01/05 12:20:57;;;;;;;2.80;1.10;;;21.00;81.00;;;;;;4999894;28;20511;-67
2024/01/05 12:24:01;;;;;;;1.77;1.00;;;21.10;81.20;;;;;;4985798;28;20564;-66
2024/01/05 12:29:33;;;;;;;2.03;1.10;;;21.10;81.20;;;;;;4973394;28;24149;-69
2024/01/05 12:32:07;;;;;;;1.47;1.03;;;21.10;81.20;;;;;;4991593;28;20956;-70
2024/01/05 12:34:48;;;;;;;1.48;0.80;;;21.20;81.30;;;;;;4996835;28;20460;-74
2024/01/05 12:37:23;;;;;;;1.43;0.70;;;21.20;81.20;;;;;;4994588;28;20211;-68
2024/01/05 12:39:54;;;;;;;1.70;0.97;;;21.20;81.10;;;;;;4989971;28;20806;-68
2024/01/05 12:42:32;;;;;;;;;;;;;;;;;;;;;
2024/01/05 12:45:13;;;;;;;1.60;1.30;;;21.30;81.00;;;;;;4985786;28;20977;-66
2024/01/05 12:47:43;;;;;;;2.20;1.07;;;21.30;80.90;;;;;;4982726;28;20469;-64
2024/01/05 12:50:30;;;;;;;2.07;1.20;;;21.30;80.90;;;;;;4986184;28;25206;-65
2024/01/05 12:52:57;;;;;;;1.47;1.10;;;21.40;80.90;;;;;;4985816;28;20462;-65
2024/01/05 12:55:42;;;;;;;3.60;0.90;;;21.40;80.90;;;;;;4985029;28;20470;-65
2024/01/05 12:58:24;;;;;;;3.17;1.53;;;21.40;80.80;;;;;;4991708;28;21068;-64
2024/01/05 13:00:59;;;;;;;1.20;0.80;;;21.50;80.70;;;;;;4985387;28;20555;-64
2024/01/05 13:03:27;;;;;;;1.13;0.93;;;21.50;80.50;;;;;;4988421;28;20476;-64
2024/01/05 13:05:55;;;;;;;1.27;0.90;;;21.50;80.50;;;;;;4996335;28;20476;-65
2024/01/05 13:08:27;;;;;;;1.37;1.00;;;21.50;80.50;;;;;;4995467;28;20465;-66
2024/01/05 13:11:08;;;;;;;1.73;1.00;;;21.60;80.60;;;;;;4999675;28;20536;-63
2024/01/05 13:13:40;;;;;;;1.53;1.00;;;21.50;80.40;;;;;;4991379;28;20457;-64
2024/01/05 13:18:58;;;;;;;2.80;1.00;;;21.60;80.60;;;;;;5001901;28;20464;-69
2024/01/05 13:21:38;;;;;;;3.10;0.77;;;21.50;80.40;;;;;;4998049;28;20485;-72
2024/01/05 13:24:11;;;;;;;2.40;1.50;;;21.60;80.60;;;;;;4989583;28;21031;-68
2024/01/05 13:27:11;;;;;;;1.47;0.80;;;21.60;80.50;;;;;;4994324;28;20704;-73
2024/01/05 13:29:49;;;;;;;1.40;1.03;;;21.60;80.50;;;;;;4875580;29;20562;-65
2024/01/05 13:32:19;;;;;;;10.97;1.10;;;21.60;80.50;;;;;;4991425;28;20897;-66